Time;durP1;ratioP1;P1;durP2;ratioP2;P2;SDS_P1;SDS_P2;PMS_P1;PMS_P2;Temp;Humidity;BMP_temperature;BMP_pressure;BME280_temperature;BME280_humidity;BME280_pressure;Samples;Min_cycle;Max_cycle;Signal;HPM_P1;HPM_P2
2022/06/30 00:00:43;;;;;;;5.35;3.50;;;20.00;99.90;;;;;;5017459;28;20068;-53
2022/06/30 00:03:09;;;;;;;4.28;3.88;;;19.90;99.90;;;;;;5035350;28;20056;-53
2022/06/30 00:05:35;;;;;;;4.43;4.00;;;19.90;99.90;;;;;;5017439;28;20045;-52
2022/06/30 00:08:01;;;;;;;4.03;3.63;;;19.90;99.90;;;;;;5035348;28;20057;-52
2022/06/30 00:10:27;;;;;;;3.72;3.50;;;19.80;99.90;;;;;;5035135;28;20045;-51
2022/06/30 00:12:53;;;;;;;5.10;3.80;;;19.80;99.90;;;;;;5035002;28;20053;-49
2022/06/30 00:15:20;;;;;;;4.20;3.83;;;19.60;99.90;;;;;;5035258;28;20037;-49
2022/06/30 00:17:45;;;;;;;5.88;4.15;;;19.60;99.90;;;;;;5035326;28;20056;-52
2022/06/30 00:20:11;;;;;;;4.00;3.70;;;19.60;99.90;;;;;;5033499;28;20041;-52
2022/06/30 00:22:37;;;;;;;4.05;3.40;;;19.60;99.90;;;;;;5034839;28;20103;-52
2022/06/30 00:25:03;;;;;;;5.60;3.70;;;19.50;99.90;;;;;;5034870;28;20088;-52
2022/06/30 00:27:28;;;;;;;3.75;3.45;;;19.50;99.90;;;;;;5035146;28;20047;-48
2022/06/30 00:29:54;;;;;;;6.63;3.85;;;19.60;99.90;;;;;;5035066;28;20121;-50
2022/06/30 00:32:19;;;;;;;4.30;3.22;;;19.70;99.90;;;;;;5033793;28;20052;-52
2022/06/30 00:34:45;;;;;;;8.13;3.80;;;19.60;99.90;;;;;;5034891;28;20435;-51
2022/06/30 00:37:11;;;;;;;3.80;3.50;;;19.50;99.90;;;;;;5034691;28;20041;-51
2022/06/30 00:39:36;;;;;;;5.47;3.88;;;19.60;99.90;;;;;;5034660;28;20492;-49
2022/06/30 00:42:04;;;;;;;5.13;3.88;;;19.50;99.90;;;;;;5034441;28;20144;-53
2022/06/30 00:44:30;;;;;;;6.15;3.72;;;19.50;99.90;;;;;;5034653;28;20041;-53
2022/06/30 00:46:57;;;;;;;6.50;4.18;;;19.40;99.90;;;;;;5034567;28;20050;-53
2022/06/30 00:49:22;;;;;;;5.90;4.22;;;19.30;99.90;;;;;;5016639;28;20384;-51
2022/06/30 00:51:48;;;;;;;4.38;3.97;;;19.10;99.90;;;;;;5034117;28;20064;-48
2022/06/30 00:54:13;;;;;;;4.15;3.83;;;19.10;99.90;;;;;;5034396;28;20492;-49
2022/06/30 00:56:43;;;;;;;7.15;4.07;;;19.10;99.90;;;;;;5034433;28;20483;-48
2022/06/30 00:59:12;;;;;;;4.40;4.00;;;19.10;99.90;;;;;;5034436;28;20052;-50
2022/06/30 01:01:38;;;;;;;4.45;4.15;;;19.10;99.90;;;;;;5034423;28;20056;-48
2022/06/30 01:04:06;;;;;;;5.28;4.18;;;19.00;99.90;;;;;;5034464;28;20048;-48
2022/06/30 01:06:32;;;;;;;4.93;4.03;;;18.90;99.90;;;;;;5034299;28;20103;-51
2022/06/30 01:08:58;;;;;;;4.13;3.83;;;18.90;99.90;;;;;;5034156;28;20045;-52
2022/06/30 01:14:08;;;;;;;4.88;4.32;;;18.90;99.90;;;;;;5034198;28;20052;-49
2022/06/30 01:16:33;;;;;;;4.68;4.28;;;18.80;99.90;;;;;;5034062;28;20045;-54
2022/06/30 01:18:59;;;;;;;5.60;4.43;;;18.80;99.90;;;;;;5033924;28;20044;-49
2022/06/30 01:21:26;;;;;;;5.30;4.25;;;18.80;99.90;;;;;;5033997;28;20121;-53
2022/06/30 01:23:52;;;;;;;6.45;4.10;;;18.80;99.90;;;;;;5033805;28;20043;-49
2022/06/30 01:26:18;;;;;;;4.40;4.00;;;18.80;99.90;;;;;;5033921;28;20037;-51
2022/06/30 01:28:43;;;;;;;4.93;4.20;;;18.70;99.90;;;;;;5033758;28;20507;-52
2022/06/30 01:31:09;;;;;;;4.60;4.20;;;18.80;99.90;;;;;;5033497;28;20072;-51
2022/06/30 01:33:34;;;;;;;6.22;4.30;;;18.70;99.90;;;;;;5033649;28;20041;-50
2022/06/30 01:36:00;;;;;;;4.50;4.20;;;18.70;99.90;;;;;;5033719;28;20044;-49
2022/06/30 01:38:26;;;;;;;4.75;4.35;;;18.70;99.90;;;;;;5015723;28;20056;-53
2022/06/30 01:40:51;;;;;;;5.35;4.63;;;18.60;99.90;;;;;;5033615;28;20049;-53
2022/06/30 01:43:17;;;;;;;5.57;4.55;;;18.60;99.90;;;;;;5015901;28;20063;-52
2022/06/30 01:45:42;;;;;;;4.53;4.13;;;18.60;99.90;;;;;;5033581;28;20037;-49
2022/06/30 01:48:09;;;;;;;4.78;4.32;;;18.50;99.90;;;;;;5033400;28;20042;-50
2022/06/30 01:50:35;;;;;;;4.57;4.18;;;18.50;99.90;;;;;;5033407;28;20048;-53
2022/06/30 01:53:01;;;;;;;4.93;4.53;;;18.50;99.90;;;;;;5032975;28;20045;-52
2022/06/30 01:55:27;;;;;;;4.68;4.28;;;18.40;99.90;;;;;;5033455;28;20052;-49
2022/06/30 01:57:53;;;;;;;5.15;4.70;;;18.40;99.90;;;;;;5033603;28;20046;-49
2022/06/30 02:00:21;;;;;;;5.18;4.40;;;18.40;99.90;;;;;;5033284;28;20064;-53
2022/06/30 02:02:48;;;;;;;5.22;4.32;;;18.30;99.90;;;;;;5015527;28;20411;-52
2022/06/30 02:05:14;;;;;;;5.18;4.40;;;18.30;99.90;;;;;;5033093;28;20041;-50
2022/06/30 02:07:40;;;;;;;6.88;4.70;;;18.30;99.90;;;;;;5032975;28;20048;-53
2022/06/30 02:10:08;;;;;;;4.32;4.00;;;18.30;99.90;;;;;;5033204;28;20041;-52
2022/06/30 02:12:46;;;;;;;5.20;4.35;;;18.30;99.90;;;;;;5033258;28;20056;-50
2022/06/30 02:15:13;;;;;;;5.30;4.30;;;18.30;99.90;;;;;;5032963;28;20514;-48
2022/06/30 02:17:39;;;;;;;5.70;4.78;;;18.30;99.90;;;;;;5033087;28;20180;-51
2022/06/30 02:20:07;;;;;;;6.28;4.63;;;18.30;99.90;;;;;;5015225;28;20404;-49
2022/06/30 02:22:34;;;;;;;5.65;4.57;;;18.30;99.90;;;;;;5032954;28;20046;-50
2022/06/30 02:24:59;;;;;;;6.00;4.20;;;18.30;99.90;;;;;;5033039;28;20057;-51
2022/06/30 02:27:25;;;;;;;4.70;4.20;;;18.20;99.90;;;;;;5032437;28;20037;-53
2022/06/30 02:29:52;;;;;;;6.93;4.28;;;18.20;99.90;;;;;;5032615;28;20053;-51
2022/06/30 02:32:18;;;;;;;4.95;4.55;;;18.20;99.90;;;;;;5032793;28;20511;-49
2022/06/30 02:34:44;;;;;;;4.75;4.20;;;18.10;99.90;;;;;;5032622;28;20112;-51
2022/06/30 02:37:10;;;;;;;5.10;4.35;;;18.10;99.90;;;;;;5015167;28;20120;-52
2022/06/30 02:39:35;;;;;;;5.13;4.63;;;18.00;99.90;;;;;;5032651;28;20045;-50
2022/06/30 02:42:01;;;;;;;4.47;4.15;;;18.00;99.90;;;;;;5032849;28;20048;-48
2022/06/30 02:44:26;;;;;;;5.10;4.60;;;18.00;99.90;;;;;;5036759;28;20037;-49
2022/06/30 02:46:54;;;;;;;6.35;4.75;;;18.00;99.90;;;;;;5036720;28;20103;-48
2022/06/30 02:49:21;;;;;;;5.15;4.68;;;18.00;99.90;;;;;;5036650;28;20120;-49
2022/06/30 02:51:47;;;;;;;4.55;4.15;;;17.90;99.90;;;;;;5018586;28;20046;-49
2022/06/30 02:54:13;;;;;;;5.18;4.57;;;18.00;99.90;;;;;;5036621;28;20046;-52
2022/06/30 02:56:39;;;;;;;5.00;4.22;;;17.90;99.90;;;;;;5036719;28;20052;-50
2022/06/30 02:59:05;;;;;;;5.20;4.28;;;17.90;99.90;;;;;;5036697;28;20041;-51
2022/06/30 03:01:31;;;;;;;5.03;4.63;;;17.90;99.90;;;;;;5018654;28;20492;-53
2022/06/30 03:03:57;;;;;;;6.05;4.55;;;17.80;99.90;;;;;;5036777;28;20044;-49
2022/06/30 03:06:22;;;;;;;4.65;4.35;;;17.80;99.90;;;;;;5036475;28;20117;-50
2022/06/30 03:08:48;;;;;;;4.75;4.45;;;17.80;99.90;;;;;;5036165;28;20034;-51
2022/06/30 03:11:16;;;;;;;5.80;4.47;;;17.80;99.90;;;;;;5035250;28;20042;-53
2022/06/30 03:13:45;;;;;;;5.20;4.70;;;17.80;99.90;;;;;;5036359;28;20380;-53
2022/06/30 03:16:11;;;;;;;5.47;4.82;;;17.80;99.90;;;;;;5036089;28;20116;-49
2022/06/30 03:18:38;;;;;;;4.72;4.35;;;17.80;99.90;;;;;;5036036;28;21086;-51
2022/06/30 03:21:03;;;;;;;5.07;4.68;;;17.70;99.90;;;;;;5036136;28;20395;-51
2022/06/30 03:23:29;;;;;;;5.35;4.95;;;17.70;99.90;;;;;;5036145;28;20042;-48
2022/06/30 03:25:54;;;;;;;5.30;4.80;;;17.70;99.90;;;;;;5036333;28;20046;-49
2022/06/30 03:28:20;;;;;;;5.47;4.32;;;17.60;99.90;;;;;;5035943;28;20046;-49
2022/06/30 03:30:47;;;;;;;5.72;5.13;;;17.60;99.90;;;;;;5035883;28;20439;-50
2022/06/30 03:33:14;;;;;;;5.22;4.40;;;17.60;99.90;;;;;;5036066;28;20396;-50
2022/06/30 03:35:40;;;;;;;5.20;4.80;;;17.60;99.90;;;;;;5035886;28;20095;-49
2022/06/30 03:38:06;;;;;;;5.72;5.18;;;17.60;99.90;;;;;;5035775;28;20041;-53
2022/06/30 03:40:32;;;;;;;5.10;4.70;;;17.60;99.90;;;;;;5034554;28;20055;-52
2022/06/30 03:42:58;;;;;;;5.13;4.68;;;17.60;99.90;;;;;;5018026;28;20462;-50
2022/06/30 03:45:24;;;;;;;5.80;5.32;;;17.60;99.90;;;;;;5035467;28;20120;-49
2022/06/30 03:47:49;;;;;;;4.90;4.60;;;17.60;99.90;;;;;;5035442;28;20472;-48
2022/06/30 03:50:15;;;;;;;6.13;4.63;;;17.60;99.90;;;;;;5035636;28;20044;-53
2022/06/30 03:52:41;;;;;;;5.53;5.10;;;;;;;;;;5033969;28;20089;-51
2022/06/30 03:55:06;;;;;;;5.72;5.13;;;17.70;99.90;;;;;;5035636;28;20164;-50
2022/06/30 03:57:32;;;;;;;6.38;4.50;;;17.70;99.90;;;;;;5035267;28;20381;-52
2022/06/30 03:59:58;;;;;;;5.35;4.85;;;17.70;99.90;;;;;;5034057;28;20041;-51
2022/06/30 04:02:23;;;;;;;4.82;4.43;;;17.70;99.90;;;;;;5035398;28;20411;-52
2022/06/30 04:04:49;;;;;;;6.25;4.93;;;17.80;99.90;;;;;;5035468;28;20052;-51
2022/06/30 04:07:14;;;;;;;5.20;4.70;;;17.80;99.90;;;;;;5035324;28;20072;-49
2022/06/30 04:09:40;;;;;;;6.13;4.70;;;17.80;99.90;;;;;;5035324;28;20033;-51
2022/06/30 04:12:06;;;;;;;7.10;5.07;;;17.80;99.90;;;;;;5035075;28;20426;-52
2022/06/30 04:14:31;;;;;;;6.32;5.15;;;17.80;99.90;;;;;;5035178;28;20127;-53
2022/06/30 04:16:57;;;;;;;5.05;4.63;;;17.90;99.90;;;;;;5035505;28;20045;-49
2022/06/30 04:19:23;;;;;;;5.35;4.88;;;17.90;99.90;;;;;;5033725;28;20100;-49
2022/06/30 04:21:49;;;;;;;5.20;4.80;;;17.90;99.90;;;;;;5034966;28;20045;-53
2022/06/30 04:24:15;;;;;;;6.72;5.03;;;18.00;99.90;;;;;;5034764;28;20483;-51
2022/06/30 04:26:40;;;;;;;5.20;4.80;;;18.00;99.90;;;;;;5034889;28;20084;-48
2022/06/30 04:29:06;;;;;;;5.25;4.75;;;18.10;99.90;;;;;;5034867;28;20088;-51
2022/06/30 04:34:16;;;;;;;7.22;5.10;;;18.10;99.90;;;;;;5034922;28;20092;-48
2022/06/30 04:36:41;;;;;;;7.68;5.20;;;18.20;99.90;;;;;;5035201;28;20068;-52
2022/06/30 04:39:07;;;;;;;5.68;5.18;;;19.30;99.90;;;;;;5034793;28;20045;-51
2022/06/30 04:41:32;;;;;;;5.32;4.85;;;20.20;99.90;;;;;;5033405;28;20041;-49
2022/06/30 04:43:59;;;;;;;6.30;4.85;;;20.30;99.90;;;;;;5034448;28;20498;-49
2022/06/30 04:46:26;;;;;;;5.35;4.65;;;21.30;99.90;;;;;;5034707;28;20042;-50
2022/06/30 04:48:53;;;;;;;7.05;4.80;;;21.60;99.90;;;;;;5034924;28;20068;-50
2022/06/30 04:51:19;;;;;;;5.15;4.72;;;22.30;99.90;;;;;;5034429;28;20048;-50
2022/06/30 04:53:45;;;;;;;7.40;4.88;;;23.00;99.90;;;;;;5034619;28;20049;-53
2022/06/30 04:56:11;;;;;;;6.30;4.63;;;23.80;99.90;;;;;;5034340;28;20060;-48
2022/06/30 04:58:37;;;;;;;5.13;4.63;;;23.70;99.90;;;;;;5034095;28;20041;-51
2022/06/30 05:01:04;;;;;;;5.33;4.93;;;23.80;99.90;;;;;;5016324;28;20052;-50
2022/06/30 05:03:30;;;;;;;5.13;4.63;;;23.90;99.90;;;;;;5034280;28;20068;-50
2022/06/30 05:05:56;;;;;;;5.10;4.68;;;23.10;99.90;;;;;;5033476;28;20053;-53
2022/06/30 05:08:22;;;;;;;4.47;4.07;;;23.00;99.90;;;;;;5016218;28;20420;-52
2022/06/30 05:10:48;;;;;;;5.75;4.80;;;22.60;99.90;;;;;;5033979;28;20041;-48
2022/06/30 05:13:13;;;;;;;4.97;4.57;;;22.40;99.90;;;;;;5034236;28;20037;-48
2022/06/30 05:15:39;;;;;;;5.22;4.38;;;23.00;99.90;;;;;;5034036;28;20041;-51
2022/06/30 05:18:05;;;;;;;5.22;4.82;;;23.70;99.90;;;;;;5034019;28;20038;-49
2022/06/30 05:20:32;;;;;;;5.05;4.55;;;24.20;99.90;;;;;;5033798;28;20049;-51
2022/06/30 05:22:57;;;;;;;5.13;4.72;;;24.50;99.90;;;;;;5034059;28;20407;-52
2022/06/30 05:28:07;;;;;;;6.22;4.72;;;25.70;99.90;;;;;;5033835;28;20049;-52
2022/06/30 05:30:34;;;;;;;5.40;4.82;;;25.70;99.90;;;;;;5033888;28;20488;-49
2022/06/30 05:32:59;;;;;;;6.03;4.90;;;25.80;99.90;;;;;;5033843;28;20037;-50
2022/06/30 05:35:25;;;;;;;5.28;4.70;;;26.00;99.90;;;;;;5033585;28;20037;-48
2022/06/30 05:37:51;;;;;;;6.55;5.05;;;26.60;99.90;;;;;;5033506;28;20076;-52
2022/06/30 05:40:16;;;;;;;5.00;4.53;;;26.50;99.30;;;;;;5033327;28;20152;-49
2022/06/30 05:42:42;;;;;;;4.97;4.50;;;27.10;99.80;;;;;;5033506;28;20049;-52
2022/06/30 05:45:08;;;;;;;6.35;4.70;;;27.60;99.40;;;;;;5033588;28;20042;-52
2022/06/30 05:47:34;;;;;;;5.28;4.78;;;27.90;98.30;;;;;;5033692;28;20088;-54
2022/06/30 05:50:00;;;;;;;5.15;4.70;;;27.50;97.50;;;;;;5033435;28;20041;-52
2022/06/30 05:52:26;;;;;;;4.72;4.32;;;27.80;97.40;;;;;;5033158;28;20053;-49
2022/06/30 05:54:51;;;;;;;4.80;4.35;;;28.30;97.10;;;;;;5033232;28;20045;-49
2022/06/30 05:57:17;;;;;;;4.63;4.15;;;28.80;95.40;;;;;;5015547;28;20073;-51
2022/06/30 05:59:42;;;;;;;5.85;4.55;;;28.80;95.50;;;;;;5033535;28;20033;-52
2022/06/30 06:02:08;;;;;;;5.28;4.80;;;29.10;94.70;;;;;;5033259;28;20042;-49
2022/06/30 06:04:34;;;;;;;4.88;4.53;;;28.80;93.60;;;;;;5033271;28;20038;-51
2022/06/30 06:07:02;;;;;;;5.05;4.65;;;29.10;94.30;;;;;;5033097;28;20045;-51
2022/06/30 06:09:28;;;;;;;5.20;4.70;;;29.50;94.70;;;;;;5033321;28;20053;-52
2022/06/30 06:11:55;;;;;;;4.88;4.47;;;29.60;93.40;;;;;;5033137;28;20045;-52
2022/06/30 06:14:21;;;;;;;6.45;4.90;;;29.60;93.70;;;;;;5033015;28;20053;-51
2022/06/30 06:16:47;;;;;;;4.95;4.55;;;30.00;92.00;;;;;;5015363;28;20099;-50
2022/06/30 06:19:12;;;;;;;4.85;4.45;;;30.10;92.80;;;;;;5033076;28;20045;-52
2022/06/30 06:21:39;;;;;;;5.38;4.82;;;30.50;92.70;;;;;;5032916;28;20056;-51
2022/06/30 06:24:04;;;;;;;6.40;4.45;;;30.60;92.40;;;;;;5033176;28;20443;-52
2022/06/30 06:26:30;;;;;;;6.00;5.15;;;30.50;91.80;;;;;;5033034;28;20042;-53
2022/06/30 06:29:08;;;;;;;6.05;5.45;;;29.80;90.30;;;;;;5033287;28;20042;-52
2022/06/30 06:31:36;;;;;;;5.20;4.80;;;29.60;90.60;;;;;;5033148;28;20041;-52
2022/06/30 06:34:03;;;;;;;6.97;5.00;;;29.40;91.20;;;;;;5032716;28;20116;-52
2022/06/30 06:36:29;;;;;;;6.32;5.10;;;29.60;92.10;;;;;;5033104;28;20037;-50
2022/06/30 06:38:55;;;;;;;5.25;4.85;;;29.80;90.90;;;;;;5032964;28;20042;-52
2022/06/30 06:41:21;;;;;;;5.20;4.70;;;29.30;91.50;;;;;;5032618;28;20408;-50
2022/06/30 06:43:50;;;;;;;5.75;5.25;;;28.80;91.30;;;;;;5032816;28;20045;-51
2022/06/30 06:46:17;;;;;;;5.82;5.32;;;28.50;91.50;;;;;;5032704;28;20042;-50
2022/06/30 06:48:43;;;;;;;5.43;4.97;;;29.50;91.50;;;;;;5032736;28;20034;-50
2022/06/30 06:51:09;;;;;;;6.35;5.00;;;29.20;91.30;;;;;;5032883;28;20092;-52
2022/06/30 06:53:36;;;;;;;5.97;5.17;;;28.70;91.40;;;;;;5032404;28;20050;-49
2022/06/30 06:56:01;;;;;;;;;;;28.90;92.40;;;;;;5032923;28;20395;-53
2022/06/30 06:58:27;;;;;;;5.97;5.23;;;28.90;92.50;;;;;;5032672;28;19921;-52
2022/06/30 07:00:54;;;;;;;5.57;5.07;;;29.00;92.80;;;;;;5032518;28;20038;-51
2022/06/30 07:03:20;;;;;;;5.88;5.38;;;29.70;92.70;;;;;;5032394;28;20050;-52
2022/06/30 07:05:46;;;;;;;6.65;5.38;;;29.10;91.90;;;;;;5032788;28;20534;-53
2022/06/30 07:08:11;;;;;;;5.53;5.13;;;29.60;92.50;;;;;;5032657;28;20159;-52
2022/06/30 07:10:37;;;;;;;6.28;5.68;;;30.40;92.20;;;;;;5014809;28;20037;-48
2022/06/30 07:13:02;;;;;;;7.10;6.50;;;30.10;91.30;;;;;;5032642;28;20045;-53
2022/06/30 07:15:28;;;;;;;6.30;5.85;;;29.40;91.70;;;;;;5032574;28;20476;-53
2022/06/30 07:17:54;;;;;;;6.45;5.95;;;30.10;91.70;;;;;;5032321;28;20480;-49
2022/06/30 07:20:19;;;;;;;6.30;5.83;;;30.20;91.50;;;;;;5032607;28;20074;-49
2022/06/30 07:22:45;;;;;;;6.32;5.65;;;30.30;91.70;;;;;;5032490;28;20508;-48
2022/06/30 07:25:11;;;;;;;8.35;6.88;;;30.70;91.10;;;;;;5032682;28;20037;-49
2022/06/30 07:27:37;;;;;;;6.80;6.25;;;30.10;91.10;;;;;;5032472;28;20450;-49
2022/06/30 07:30:04;;;;;;;8.38;6.50;;;30.10;91.40;;;;;;5035589;28;20037;-53
2022/06/30 07:32:29;;;;;;;6.40;5.80;;;30.20;91.60;;;;;;5035927;28;20053;-50
2022/06/30 07:34:55;;;;;;;7.30;6.70;;;30.90;91.60;;;;;;5036196;28;20042;-51
2022/06/30 07:37:20;;;;;;;6.73;6.10;;;30.70;90.80;;;;;;5036053;28;20073;-51
2022/06/30 07:39:46;;;;;;;8.10;6.65;;;31.00;90.90;;;;;;5035951;28;20495;-52
2022/06/30 07:42:12;;;;;;;7.35;6.65;;;30.60;90.70;;;;;;5018232;28;20313;-51
2022/06/30 07:44:38;;;;;;;7.40;6.80;;;30.40;91.50;;;;;;5035892;28;20073;-52
2022/06/30 07:47:03;;;;;;;8.02;7.30;;;29.90;91.50;;;;;;5035846;28;20526;-49
2022/06/30 07:49:29;;;;;;;7.85;7.20;;;29.40;92.00;;;;;;5035970;28;20042;-47
2022/06/30 07:51:55;;;;;;;8.48;7.68;;;28.90;92.30;;;;;;5035970;28;20132;-51
2022/06/30 07:54:20;;;;;;;8.35;7.55;;;27.90;93.50;;;;;;5035980;28;20053;-50
2022/06/30 07:56:46;;;;;;;9.05;8.35;;;27.80;93.90;;;;;;5035670;28;20048;-50
2022/06/30 07:59:12;;;;;;;8.00;7.40;;;27.60;94.20;;;;;;5034400;28;20038;-49
2022/06/30 08:01:37;;;;;;;8.40;7.78;;;27.10;95.70;;;;;;5035421;28;20037;-49
2022/06/30 08:04:03;;;;;;;8.63;7.82;;;27.30;95.90;;;;;;5035377;28;20046;-50
2022/06/30 08:06:29;;;;;;;8.52;7.72;;;27.50;95.80;;;;;;5035534;28;20041;-49
2022/06/30 08:08:54;;;;;;;8.10;7.40;;;27.20;96.70;;;;;;5035490;28;20059;-48
2022/06/30 08:11:20;;;;;;;8.57;7.30;;;27.60;96.50;;;;;;5035380;28;20388;-48
2022/06/30 08:13:46;;;;;;;8.80;8.10;;;27.60;96.50;;;;;;5035537;28;20068;-52
2022/06/30 08:16:13;;;;;;;8.55;7.82;;;27.80;95.90;;;;;;5035252;28;20124;-50
2022/06/30 08:18:39;;;;;;;9.23;8.43;;;27.90;95.80;;;;;;5035375;28;20042;-49
2022/06/30 08:21:06;;;;;;;8.73;8.00;;;27.80;96.20;;;;;;5017787;28;20045;-53
2022/06/30 08:23:32;;;;;;;9.45;7.60;;;27.60;96.50;;;;;;5035187;28;20092;-49
2022/06/30 08:25:57;;;;;;;8.30;7.60;;;27.60;97.60;;;;;;5001082;28;20073;-50
2022/06/30 08:28:23;;;;;;;9.32;8.40;;;27.50;97.70;;;;;;5035120;28;20073;-49
2022/06/30 08:30:50;;;;;;;9.90;8.75;;;27.70;97.20;;;;;;5017154;28;20057;-49
2022/06/30 08:33:16;;;;;;;9.82;8.85;;;27.70;97.00;;;;;;5035133;28;20053;-54
2022/06/30 08:35:42;;;;;;;9.60;8.70;;;28.00;97.20;;;;;;5035108;28;20045;-50
2022/06/30 08:38:07;;;;;;;8.75;8.07;;;28.10;97.00;;;;;;5034826;28;20052;-49
2022/06/30 08:43:18;;;;;;;9.10;8.23;;;28.30;96.90;;;;;;5034791;28;20064;-50
2022/06/30 08:45:45;;;;;;;10.02;9.23;;;28.60;96.40;;;;;;5034830;28;20069;-49
2022/06/30 08:48:12;;;;;;;;;;;28.40;96.50;;;;;;5035209;28;20064;-49
2022/06/30 08:50:40;;;;;;;8.93;7.97;;;28.60;97.00;;;;;;5034586;28;20302;-50
2022/06/30 08:53:07;;;;;;;8.93;8.13;;;28.80;96.50;;;;;;5034228;28;20547;-49
2022/06/30 08:55:33;;;;;;;9.00;8.30;;;28.80;96.90;;;;;;5034572;28;20065;-51
2022/06/30 08:58:03;;;;;;;8.75;7.85;;;28.80;96.80;;;;;;5034261;28;20499;-50
2022/06/30 09:00:29;;;;;;;8.13;7.53;;;29.10;95.80;;;;;;5034564;28;20120;-50
2022/06/30 09:02:54;;;;;;;8.70;7.93;;;29.20;95.70;;;;;;5034351;28;20041;-53
2022/06/30 09:05:21;;;;;;;8.82;8.07;;;29.40;96.00;;;;;;5034476;28;20049;-51
2022/06/30 09:07:47;;;;;;;8.68;7.93;;;29.40;95.60;;;;;;5016568;28;20476;-51
2022/06/30 09:10:12;;;;;;;8.80;7.68;;;29.60;96.10;;;;;;5034115;28;20049;-51
2022/06/30 09:12:38;;;;;;;9.35;8.55;;;29.90;96.00;;;;;;5034374;28;20079;-52
2022/06/30 09:15:04;;;;;;;9.43;8.52;;;29.80;96.10;;;;;;5032873;28;20111;-49
2022/06/30 09:17:30;;;;;;;9.73;8.93;;;29.80;96.10;;;;;;5034279;28;20112;-49
2022/06/30 09:20:14;;;;;;;9.83;8.97;;;29.90;95.40;;;;;;5034090;28;20521;-50
2022/06/30 09:22:41;;;;;;;9.00;8.20;;;29.90;95.70;;;;;;5033928;28;20133;-52
2022/06/30 09:25:18;;;;;;;9.18;8.38;;;29.90;95.70;;;;;;5033749;28;20037;-52
2022/06/30 09:27:46;;;;;;;9.27;8.48;;;29.90;95.50;;;;;;5034063;28;20060;-51
2022/06/30 09:30:14;;;;;;;10.02;9.10;;;30.10;95.60;;;;;;5032649;28;20504;-52
2022/06/30 09:32:53;;;;;;;9.88;9.10;;;30.00;94.50;;;;;;5033893;28;20464;-53
2022/06/30 09:35:23;;;;;;;9.18;8.43;;;29.60;94.60;;;;;;5016266;28;20053;-52
2022/06/30 09:38:09;;;;;;;10.27;8.50;;;30.00;94.90;;;;;;5033892;28;20057;-54
2022/06/30 09:40:37;;;;;;;10.70;9.70;;;30.10;94.80;;;;;;5033823;28;20041;-51
2022/06/30 09:43:04;;;;;;;11.02;10.02;;;29.80;93.30;;;;;;5033369;28;20037;-51
2022/06/30 09:45:34;;;;;;;11.20;8.95;;;29.60;94.10;;;;;;5033548;28;20046;-49
2022/06/30 09:48:00;;;;;;;11.90;10.73;;;29.90;95.40;;;;;;5033433;28;20045;-49
2022/06/30 09:50:26;;;;;;;11.15;10.15;;;30.10;94.70;;;;;;5033652;28;20514;-52
2022/06/30 09:53:05;;;;;;;9.68;8.82;;;30.20;94.50;;;;;;5033129;28;20495;-51
2022/06/30 09:55:43;;;;;;;11.63;9.70;;;30.30;94.70;;;;;;5033488;28;20046;-49
2022/06/30 09:58:09;;;;;;;12.02;10.52;;;30.40;95.00;;;;;;5033685;28;20043;-52
2022/06/30 10:00:51;;;;;;;10.05;9.05;;;30.40;94.20;;;;;;5033320;28;20077;-53
2022/06/30 10:03:18;;;;;;;10.57;9.48;;;30.60;95.40;;;;;;5033486;28;20054;-54
2022/06/30 10:05:45;;;;;;;11.65;10.65;;;30.30;94.90;;;;;;5033340;28;20037;-50
2022/06/30 10:08:15;;;;;;;10.27;9.27;;;30.40;94.20;;;;;;5033164;28;20124;-54
2022/06/30 10:10:42;;;;;;;10.52;9.65;;;30.40;94.30;;;;;;5033188;28;20072;-53
2022/06/30 10:13:14;;;;;;;11.55;10.60;;;30.80;94.50;;;;;;5033045;28;20037;-53
2022/06/30 10:15:40;;;;;;;11.07;9.93;;;30.20;93.20;;;;;;5033069;28;20046;-51
2022/06/30 10:18:08;;;;;;;10.00;8.98;;;30.10;93.70;;;;;;5033315;28;20045;-53
2022/06/30 10:20:38;;;;;;;9.93;9.10;;;29.90;93.80;;;;;;5033080;28;20037;-54
2022/06/30 10:23:07;;;;;;;9.60;8.68;;;30.20;94.30;;;;;;5015419;28;20072;-49
2022/06/30 10:25:34;;;;;;;10.05;9.10;;;30.40;94.00;;;;;;5032937;28;20052;-54
2022/06/30 10:28:00;;;;;;;7.35;6.63;;;30.10;93.60;;;;;;5033086;28;20049;-53
2022/06/30 10:30:36;;;;;;;7.57;6.47;;;30.50;93.90;;;;;;5033140;28;20041;-54
2022/06/30 10:33:19;;;;;;;6.70;6.10;;;30.80;93.00;;;;;;5033086;28;20045;-53
2022/06/30 10:35:49;;;;;;;4.90;4.40;;;31.10;93.10;;;;;;5032754;28;20555;-53
2022/06/30 10:38:20;;;;;;;5.15;4.30;;;31.20;90.80;;;;;;5033018;28;20107;-54
2022/06/30 10:41:10;;;;;;;4.90;4.07;;;31.40;89.70;;;;;;5015034;28;20041;-54
2022/06/30 10:44:05;;;;;;;4.85;4.45;;;31.40;90.00;;;;;;5032866;28;20046;-53
2022/06/30 10:46:31;;;;;;;5.13;4.60;;;31.60;89.10;;;;;;5032587;28;20045;-53
2022/06/30 10:48:56;;;;;;;4.23;3.80;;;31.50;87.70;;;;;;5032822;28;20132;-51
2022/06/30 10:51:24;;;;;;;5.10;4.43;;;31.70;88.10;;;;;;5032517;28;20120;-53
2022/06/30 10:53:57;;;;;;;6.57;5.97;;;31.90;85.20;;;;;;5015287;28;20049;-54
2022/06/30 10:56:44;;;;;;;5.80;5.13;;;31.80;86.90;;;;;;5031582;28;20034;-53
2022/06/30 10:59:12;;;;;;;4.70;4.30;;;31.80;86.00;;;;;;5014763;28;20103;-52
2022/06/30 11:02:06;;;;;;;7.50;5.45;;;31.60;85.40;;;;;;5032754;28;20567;-53
2022/06/30 11:04:33;;;;;;;5.78;5.28;;;31.20;86.10;;;;;;5035140;28;20049;-51
2022/06/30 11:07:01;;;;;;;6.15;5.65;;;30.90;87.20;;;;;;5036603;28;20045;-50
2022/06/30 11:09:44;;;;;;;5.43;4.93;;;30.90;86.70;;;;;;5036409;28;20041;-51
2022/06/30 11:12:19;;;;;;;5.25;4.78;;;31.20;87.80;;;;;;5018686;28;20046;-53
2022/06/30 11:14:49;;;;;;;10.68;5.05;;;31.30;86.60;;;;;;5036464;28;20048;-54
2022/06/30 11:17:16;;;;;;;5.95;5.05;;;31.50;86.60;;;;;;5036330;28;20042;-53
2022/06/30 11:19:42;;;;;;;7.72;5.20;;;31.60;85.30;;;;;;5036277;28;20091;-54
2022/06/30 11:22:12;;;;;;;7.47;4.40;;;31.60;85.70;;;;;;5036372;28;20041;-54
2022/06/30 11:24:40;;;;;;;4.47;4.07;;;31.60;84.50;;;;;;5036111;28;20094;-53
2022/06/30 11:27:22;;;;;;;5.75;4.50;;;31.30;83.70;;;;;;5036144;28;20514;-51
2022/06/30 11:29:58;;;;;;;4.18;3.83;;;31.50;84.80;;;;;;5036282;28;20045;-53
2022/06/30 11:32:25;;;;;;;;;;;31.50;84.10;;;;;;5036680;28;20076;-51
2022/06/30 11:34:50;;;;;;;4.53;3.72;;;31.00;80.80;;;;;;5036160;28;19921;-52
2022/06/30 11:37:23;;;;;;;4.00;3.63;;;31.40;84.40;;;;;;5036159;28;20405;-53
2022/06/30 11:39:59;;;;;;;3.72;3.42;;;31.40;82.10;;;;;;5035999;28;20037;-51
2022/06/30 11:42:25;;;;;;;3.40;3.07;;;31.60;82.70;;;;;;5035922;28;20038;-52
2022/06/30 11:44:51;;;;;;;4.93;4.35;;;31.90;82.40;;;;;;5035736;28;20287;-54
2022/06/30 11:47:17;;;;;;;4.70;4.30;;;31.50;79.70;;;;;;5018132;28;20053;-51
2022/06/30 11:49:44;;;;;;;5.88;5.38;;;31.70;82.10;;;;;;5035718;28;20491;-49
2022/06/30 11:52:15;;;;;;;;;;;31.40;83.20;;;;;;5036075;28;20147;-52
2022/06/30 11:55:12;;;;;;;6.30;5.28;;;31.00;83.20;;;;;;5035734;28;19975;-53
2022/06/30 11:57:44;;;;;;;6.15;5.07;;;30.60;83.60;;;;;;5015295;28;20064;-49
2022/06/30 12:00:33;;;;;;;5.53;4.95;;;30.30;84.00;;;;;;5035712;28;20045;-51
2022/06/30 12:02:58;;;;;;;4.47;4.00;;;30.20;84.50;;;;;;5035841;28;20045;-53
2022/06/30 12:05:28;;;;;;;5.43;3.23;;;30.40;83.20;;;;;;5035212;28;20044;-50
2022/06/30 12:07:55;;;;;;;6.53;3.40;;;30.30;80.30;;;;;;5035642;28;20038;-51
2022/06/30 12:10:23;;;;;;;5.75;4.55;;;30.50;80.30;;;;;;5035553;28;20045;-50
2022/06/30 12:12:49;;;;;;;6.75;6.13;;;30.80;86.60;;;;;;5035435;28;20116;-50
2022/06/30 12:15:16;;;;;;;8.60;5.93;;;30.20;84.90;;;;;;5035253;28;20176;-53
2022/06/30 12:17:45;;;;;;;7.63;5.50;;;30.10;83.30;;;;;;5035340;28;20049;-51
2022/06/30 12:20:13;;;;;;;8.55;6.10;;;29.80;85.70;;;;;;5035062;28;20069;-50
2022/06/30 12:22:44;;;;;;;6.43;5.30;;;30.10;86.30;;;;;;5017616;28;20123;-51
2022/06/30 12:25:11;;;;;;;6.05;4.90;;;30.30;86.40;;;;;;5034189;28;20134;-50
2022/06/30 12:27:41;;;;;;;7.45;4.43;;;30.60;84.10;;;;;;5035122;28;20053;-52
2022/06/30 12:30:15;;;;;;;6.13;4.18;;;30.70;84.60;;;;;;5035024;28;20418;-52
2022/06/30 12:32:41;;;;;;;5.20;4.70;;;30.60;83.70;;;;;;5035041;28;20467;-50
2022/06/30 12:35:12;;;;;;;6.13;4.15;;;29.60;81.40;;;;;;5034746;28;20561;-48
2022/06/30 12:37:40;;;;;;;6.10;3.88;;;30.10;83.90;;;;;;5034780;28;20500;-50
2022/06/30 12:40:13;;;;;;;5.35;3.70;;;30.20;83.30;;;;;;5035140;28;20045;-52
2022/06/30 12:42:43;;;;;;;5.85;5.35;;;30.10;83.60;;;;;;5034683;28;20041;-53
2022/06/30 12:45:36;;;;;;;5.45;4.55;;;29.80;82.50;;;;;;5034655;28;20033;-51
2022/06/30 12:48:05;;;;;;;5.20;3.88;;;29.80;83.60;;;;;;5022519;28;20111;-50
2022/06/30 12:50:35;;;;;;;3.72;3.42;;;29.60;82.50;;;;;;5034605;28;20045;-52
2022/06/30 12:53:20;;;;;;;5.10;3.30;;;29.50;82.60;;;;;;5034620;28;20057;-50
2022/06/30 12:56:10;;;;;;;3.38;2.85;;;29.70;80.80;;;;;;5034389;28;20385;-49
2022/06/30 12:58:49;;;;;;;4.72;2.97;;;30.10;81.80;;;;;;5034477;28;20038;-53
2022/06/30 13:01:23;;;;;;;4.95;2.40;;;30.10;82.70;;;;;;5034763;28;20056;-51